createdAt,value
2018-10-12T00:00:32.266Z,1018.39
2018-10-12T00:01:32.182Z,1018.35
2018-10-12T00:02:32.296Z,1018.35
2018-10-12T00:03:31.973Z,1018.38
2018-10-12T00:04:32.328Z,1018.38
2018-10-12T00:05:32.208Z,1018.36
2018-10-12T00:06:32.351Z,1018.35
2018-10-12T00:07:32.461Z,1018.36
2018-10-12T00:08:32.252Z,1018.34
2018-10-12T00:09:32.068Z,1018.35
2018-10-12T00:10:32.277Z,1018.35
2018-10-12T00:11:32.060Z,1018.37
2018-10-12T00:12:32.615Z,1018.39
2018-10-12T00:13:32.207Z,1018.44
2018-10-12T00:14:32.168Z,1018.44
2018-10-12T00:15:32.138Z,1018.42
2018-10-12T00:16:32.329Z,1018.44
2018-10-12T00:17:32.274Z,1018.42
2018-10-12T00:18:31.927Z,1018.42
2018-10-12T00:19:32.954Z,1018.49
2018-10-12T00:20:32.101Z,1018.58
2018-10-12T00:21:32.381Z,1018.6
2018-10-12T00:22:32.257Z,1018.62
2018-10-12T00:23:32.280Z,1018.62
2018-10-12T00:24:32.151Z,1018.67
2018-10-12T00:25:32.013Z,1018.76
2018-10-12T00:26:31.905Z,1018.75
2018-10-12T00:27:32.247Z,1018.76
2018-10-12T00:28:32.021Z,1018.73
2018-10-12T00:29:32.056Z,1018.69
2018-10-12T00:30:32.088Z,1018.69
2018-10-12T00:31:32.120Z,1018.78
2018-10-12T00:32:32.076Z,1018.76
2018-10-12T00:33:32.643Z,1018.83
2018-10-12T00:34:32.143Z,1018.86
2018-10-12T00:35:32.085Z,1018.85
2018-10-12T00:36:32.630Z,1018.79
2018-10-12T00:37:32.195Z,1018.79
2018-10-12T00:38:31.978Z,1018.75
2018-10-12T00:39:32.066Z,1018.7
2018-10-12T00:40:32.573Z,1018.82
2018-10-12T00:41:33.000Z,1018.84
2018-10-12T00:42:32.103Z,1018.84
2018-10-12T00:43:32.164Z,1018.84
2018-10-12T00:44:32.332Z,1018.84
2018-10-12T00:45:31.976Z,1018.75
2018-10-12T00:46:32.084Z,1018.79
2018-10-12T00:47:32.161Z,1018.72
2018-10-12T00:48:31.965Z,1018.73
2018-10-12T00:49:32.019Z,1018.74
2018-10-12T00:50:32.205Z,1018.71
2018-10-12T00:51:32.319Z,1018.74
2018-10-12T00:52:32.053Z,1018.73
2018-10-12T00:53:32.031Z,1018.78
2018-10-12T00:54:32.317Z,1018.79
2018-10-12T00:55:32.215Z,1018.77
2018-10-12T00:56:32.183Z,1018.8
2018-10-12T00:57:31.987Z,1018.9
2018-10-12T00:58:32.058Z,1018.85
2018-10-12T00:59:33.029Z,1018.82
2018-10-12T01:00:32.093Z,1018.8
2018-10-12T01:01:31.946Z,1018.8
2018-10-12T01:02:32.073Z,1018.79
2018-10-12T01:03:32.050Z,1018.71
2018-10-12T01:04:31.931Z,1018.77
2018-10-12T01:05:32.231Z,1018.72
2018-10-12T01:06:32.180Z,1018.79
2018-10-12T01:07:31.986Z,1018.73
2018-10-12T01:08:31.998Z,1018.71
2018-10-12T01:09:32.173Z,1018.75
2018-10-12T01:10:32.042Z,1018.7
2018-10-12T01:11:32.023Z,1018.76
2018-10-12T01:12:32.149Z,1018.75
2018-10-12T01:13:32.144Z,1018.76
2018-10-12T01:14:31.961Z,1018.76
2018-10-12T01:15:32.195Z,1018.8
2018-10-12T01:16:32.119Z,1018.81
2018-10-12T01:17:32.125Z,1018.82
2018-10-12T01:18:32.099Z,1018.79
2018-10-12T01:19:32.039Z,1018.81
2018-10-12T01:20:32.356Z,1018.79
2018-10-12T01:21:32.016Z,1018.77
2018-10-12T01:22:32.589Z,1018.76
2018-10-12T01:23:32.484Z,1018.73
2018-10-12T01:24:31.968Z,1018.74
2018-10-12T01:25:32.190Z,1018.81
2018-10-12T01:26:32.097Z,1018.81
2018-10-12T01:27:32.119Z,1018.81
2018-10-12T01:28:32.243Z,1018.8
2018-10-12T01:29:32.120Z,1018.85
2018-10-12T01:30:31.968Z,1018.91
2018-10-12T01:31:32.007Z,1018.93
2018-10-12T01:32:31.869Z,1018.92
2018-10-12T01:33:32.338Z,1018.95
2018-10-12T01:34:32.065Z,1018.95
2018-10-12T01:35:32.224Z,1018.94
2018-10-12T01:36:32.120Z,1018.95
2018-10-12T01:37:32.314Z,1018.96
2018-10-12T01:38:32.086Z,1018.97
2018-10-12T01:39:32.192Z,1018.94
2018-10-12T01:40:32.246Z,1018.89
2018-10-12T01:41:32.172Z,1018.9
2018-10-12T01:42:32.153Z,1018.93
2018-10-12T01:43:32.123Z,1018.96
2018-10-12T01:44:32.361Z,1018.89
2018-10-12T01:45:32.403Z,1018.87
2018-10-12T01:46:32.029Z,1018.91
2018-10-12T01:47:32.123Z,1018.91
2018-10-12T01:48:32.000Z,1018.99
2018-10-12T01:49:32.173Z,1019.02
2018-10-12T01:50:31.973Z,1018.99
2018-10-12T01:51:32.017Z,1019
2018-10-12T01:52:32.118Z,1019.01
2018-10-12T01:53:31.909Z,1019.05
2018-10-12T01:54:32.029Z,1019.09
2018-10-12T01:55:32.230Z,1019.13
2018-10-12T01:56:32.248Z,1019.15
2018-10-12T01:57:32.101Z,1019.09
2018-10-12T01:58:32.332Z,1019.12
2018-10-12T01:59:32.236Z,1019.07
2018-10-12T02:00:32.037Z,1019.11
2018-10-12T02:01:32.090Z,1019.04
2018-10-12T02:02:32.386Z,1019.04
2018-10-12T02:03:31.922Z,1019.08
2018-10-12T02:04:32.025Z,1019.06
2018-10-12T02:05:32.051Z,1019.05
2018-10-12T02:06:32.153Z,1019.01
2018-10-12T02:07:31.971Z,1018.97
2018-10-12T02:08:32.293Z,1018.98
2018-10-12T02:09:31.934Z,1019.01
2018-10-12T02:10:32.142Z,1019.04
2018-10-12T02:11:32.283Z,1019.13
2018-10-12T02:12:32.145Z,1019.2
2018-10-12T02:13:32.049Z,1019.24
2018-10-12T02:14:32.176Z,1019.15
2018-10-12T02:15:32.372Z,1019.17
2018-10-12T02:16:32.383Z,1019.25
2018-10-12T02:17:32.267Z,1019.24
2018-10-12T02:18:32.394Z,1019.3
2018-10-12T02:19:31.963Z,1019.28
2018-10-12T02:20:31.969Z,1019.33
2018-10-12T02:21:32.231Z,1019.33
2018-10-12T02:22:32.319Z,1019.34
2018-10-12T02:23:32.139Z,1019.4
2018-10-12T02:24:32.317Z,1019.34
2018-10-12T02:25:32.123Z,1019.36
2018-10-12T02:26:31.837Z,1019.33
2018-10-12T02:27:32.129Z,1019.32
2018-10-12T02:28:32.053Z,1019.27
2018-10-12T02:29:32.180Z,1019.3
2018-10-12T02:30:32.006Z,1019.25
2018-10-12T02:31:32.067Z,1019.3
2018-10-12T02:32:31.954Z,1019.32
2018-10-12T02:33:31.959Z,1019.35
2018-10-12T02:34:32.036Z,1019.39
2018-10-12T02:35:31.915Z,1019.4
2018-10-12T02:36:31.906Z,1019.37
2018-10-12T02:37:31.925Z,1019.38
2018-10-12T02:38:32.025Z,1019.41
2018-10-12T02:39:32.192Z,1019.46
2018-10-12T02:40:31.872Z,1019.5
2018-10-12T02:41:32.050Z,1019.49
2018-10-12T02:42:32.121Z,1019.54
2018-10-12T02:43:32.436Z,1019.56
2018-10-12T02:44:32.050Z,1019.6
2018-10-12T02:45:32.356Z,1019.65
2018-10-12T02:46:32.249Z,1019.71
2018-10-12T02:47:31.899Z,1019.74
2018-10-12T02:48:32.082Z,1019.74
2018-10-12T02:49:32.098Z,1019.75
2018-10-12T02:50:31.887Z,1019.78
2018-10-12T02:51:32.282Z,1019.74
2018-10-12T02:52:32.219Z,1019.72
2018-10-12T02:53:31.904Z,1019.73
2018-10-12T02:54:32.207Z,1019.77
2018-10-12T02:55:32.204Z,1019.81
2018-10-12T02:56:31.883Z,1019.8
2018-10-12T02:57:32.231Z,1019.81
2018-10-12T02:58:32.026Z,1019.77
2018-10-12T02:59:32.152Z,1019.8
2018-10-12T03:00:32.048Z,1019.81
2018-10-12T03:01:32.074Z,1019.81
2018-10-12T03:02:32.007Z,1019.8
2018-10-12T03:03:33.245Z,1019.76
2018-10-12T03:04:32.097Z,1019.73
2018-10-12T03:05:31.922Z,1019.76
2018-10-12T03:06:32.132Z,1019.77
2018-10-12T03:07:31.920Z,1019.79
2018-10-12T03:08:32.039Z,1019.75
2018-10-12T03:09:32.077Z,1019.72
2018-10-12T03:10:32.098Z,1019.76
2018-10-12T03:11:32.225Z,1019.78
2018-10-12T03:12:32.028Z,1019.79
2018-10-12T03:13:32.508Z,1019.87
2018-10-12T03:14:32.166Z,1019.85
2018-10-12T03:15:32.065Z,1019.92
2018-10-12T03:16:32.126Z,1019.93
2018-10-12T03:17:32.012Z,1019.93
2018-10-12T03:18:32.058Z,1019.93
2018-10-12T03:19:32.014Z,1019.96
2018-10-12T03:20:31.991Z,1019.91
2018-10-12T03:21:32.046Z,1019.89
2018-10-12T03:22:32.442Z,1019.92
2018-10-12T03:23:31.898Z,1019.93
2018-10-12T03:24:32.322Z,1019.95
2018-10-12T03:25:32.067Z,1019.99
2018-10-12T03:26:32.347Z,1019.98
2018-10-12T03:27:32.111Z,1019.96
2018-10-12T03:28:32.028Z,1019.98
2018-10-12T03:29:32.015Z,1019.92
2018-10-12T03:30:32.241Z,1019.96
2018-10-12T03:31:32.325Z,1019.97
2018-10-12T03:32:31.972Z,1020.05
2018-10-12T03:33:32.043Z,1020.04
2018-10-12T03:34:32.300Z,1020.07
2018-10-12T03:35:32.199Z,1020.15
2018-10-12T03:36:32.047Z,1020.08
2018-10-12T03:37:32.251Z,1020.08
2018-10-12T03:38:31.929Z,1020.09
2018-10-12T03:39:32.858Z,1020.11
2018-10-12T03:40:32.245Z,1020.05
2018-10-12T03:41:31.965Z,1020.03
2018-10-12T03:42:31.963Z,1020.03
2018-10-12T03:43:32.103Z,1020.05
2018-10-12T03:44:32.277Z,1020.07
2018-10-12T03:45:32.260Z,1020.06
2018-10-12T03:46:31.999Z,1020.09
2018-10-12T03:47:31.841Z,1020.07
2018-10-12T03:48:32.164Z,1020.12
2018-10-12T03:49:32.215Z,1020.09
2018-10-12T03:50:32.111Z,1020.08
2018-10-12T03:51:31.854Z,1020.07
2018-10-12T03:52:31.920Z,1020.07
2018-10-12T03:53:32.089Z,1020.07
2018-10-12T03:54:31.871Z,1020.05
2018-10-12T03:55:31.900Z,1020.07
2018-10-12T03:56:32.146Z,1020.07
2018-10-12T03:57:32.254Z,1020.05
2018-10-12T03:58:31.833Z,1020.02
2018-10-12T03:59:31.966Z,1020.06
2018-10-12T04:00:31.831Z,1020.08
2018-10-12T04:01:31.854Z,1020.11
2018-10-12T04:02:32.313Z,1020.11
2018-10-12T04:03:32.177Z,1020.18
2018-10-12T04:04:32.315Z,1020.13
2018-10-12T04:05:32.018Z,1020.19
2018-10-12T04:06:32.009Z,1020.2
2018-10-12T04:07:32.068Z,1020.18
2018-10-12T04:08:31.864Z,1020.26
2018-10-12T04:09:31.873Z,1020.28
2018-10-12T04:10:31.981Z,1020.3
2018-10-12T04:11:32.044Z,1020.36
2018-10-12T04:12:32.570Z,1020.37
2018-10-12T04:13:31.967Z,1020.35
2018-10-12T04:14:32.110Z,1020.32
2018-10-12T04:15:31.820Z,1020.37
2018-10-12T04:16:32.518Z,1020.39
2018-10-12T04:17:31.879Z,1020.41
2018-10-12T04:18:32.023Z,1020.38
2018-10-12T04:19:31.786Z,1020.45
2018-10-12T04:20:32.079Z,1020.45
2018-10-12T04:21:31.865Z,1020.46
2018-10-12T04:22:31.930Z,1020.49
2018-10-12T04:23:32.010Z,1020.57
2018-10-12T04:24:32.216Z,1020.54
2018-10-12T04:25:32.096Z,1020.55
2018-10-12T04:26:32.793Z,1020.58
2018-10-12T04:27:31.910Z,1020.61
2018-10-12T04:28:31.967Z,1020.62
2018-10-12T04:29:32.396Z,1020.71
2018-10-12T04:30:32.133Z,1020.71
2018-10-12T04:31:31.970Z,1020.69
2018-10-12T04:32:32.020Z,1020.74
2018-10-12T04:33:32.074Z,1020.73
2018-10-12T04:34:31.934Z,1020.74
2018-10-12T04:35:32.339Z,1020.76
2018-10-12T04:36:32.135Z,1020.76
2018-10-12T04:37:31.796Z,1020.83
2018-10-12T04:38:32.244Z,1020.82
2018-10-12T04:39:31.917Z,1020.81
2018-10-12T04:40:31.981Z,1020.79
2018-10-12T04:41:32.057Z,1020.79
2018-10-12T04:42:31.964Z,1020.82
2018-10-12T04:43:31.966Z,1020.82
2018-10-12T04:44:32.117Z,1020.85
2018-10-12T04:45:31.974Z,1020.85
2018-10-12T04:46:32.176Z,1020.89
2018-10-12T04:47:31.906Z,1020.83
2018-10-12T04:48:31.975Z,1020.9
2018-10-12T04:49:32.309Z,1020.87
2018-10-12T04:50:31.965Z,1020.91
2018-10-12T04:51:32.363Z,1020.89
2018-10-12T04:52:32.048Z,1020.91
2018-10-12T04:53:31.852Z,1020.89
2018-10-12T04:54:31.966Z,1020.91
2018-10-12T04:55:31.999Z,1020.96
2018-10-12T04:56:31.871Z,1020.95
2018-10-12T04:57:31.918Z,1020.92
2018-10-12T04:58:32.027Z,1020.92
2018-10-12T04:59:32.188Z,1020.94
2018-10-12T05:00:32.551Z,1020.97
2018-10-12T05:01:31.880Z,1020.93
2018-10-12T05:02:31.982Z,1020.99
2018-10-12T05:03:32.059Z,1021
2018-10-12T05:04:31.917Z,1021.04
2018-10-12T05:05:31.918Z,1021.1
2018-10-12T05:06:31.920Z,1021.12
2018-10-12T05:07:32.198Z,1021.15
2018-10-12T05:08:31.952Z,1021.17
2018-10-12T05:09:32.168Z,1021.12
2018-10-12T05:10:32.270Z,1021.13
2018-10-12T05:11:32.269Z,1021.12
2018-10-12T05:12:31.867Z,1021.19
2018-10-12T05:13:32.085Z,1021.21
2018-10-12T05:14:32.448Z,1021.23
2018-10-12T05:15:32.153Z,1021.28
2018-10-12T05:16:32.011Z,1021.25
2018-10-12T05:17:31.971Z,1021.26
2018-10-12T05:18:31.839Z,1021.3
2018-10-12T05:19:32.273Z,1021.31
2018-10-12T05:20:32.071Z,1021.38
2018-10-12T05:21:32.166Z,1021.35
2018-10-12T05:22:31.859Z,1021.37
2018-10-12T05:23:32.198Z,1021.37
2018-10-12T05:24:32.086Z,1021.43
2018-10-12T05:25:31.955Z,1021.45
2018-10-12T05:26:31.997Z,1021.44
2018-10-12T05:27:31.987Z,1021.46
2018-10-12T05:28:32.043Z,1021.5
2018-10-12T05:29:32.077Z,1021.49
2018-10-12T05:30:32.109Z,1021.47
2018-10-12T05:31:31.858Z,1021.47
2018-10-12T05:32:32.124Z,1021.5
2018-10-12T05:33:32.019Z,1021.5
2018-10-12T05:34:31.955Z,1021.5
2018-10-12T05:35:32.457Z,1021.47
2018-10-12T05:36:31.966Z,1021.48
2018-10-12T05:37:31.969Z,1021.42
2018-10-12T05:38:31.939Z,1021.47
2018-10-12T05:39:31.959Z,1021.46
2018-10-12T05:40:31.958Z,1021.43
2018-10-12T05:41:31.920Z,1021.43
2018-10-12T05:42:32.029Z,1021.45
2018-10-12T05:43:33.097Z,1021.45
2018-10-12T05:44:32.146Z,1021.49
2018-10-12T05:45:32.023Z,1021.5
2018-10-12T05:46:31.900Z,1021.47
2018-10-12T05:47:32.045Z,1021.51
2018-10-12T05:48:32.236Z,1021.51
2018-10-12T05:49:32.338Z,1021.47
2018-10-12T05:50:32.047Z,1021.49
2018-10-12T05:51:31.906Z,1021.53
2018-10-12T05:52:31.997Z,1021.61
2018-10-12T05:53:32.208Z,1021.63
2018-10-12T05:54:31.863Z,1021.69
2018-10-12T05:55:31.865Z,1021.76
2018-10-12T05:56:32.026Z,1021.77
2018-10-12T05:57:32.294Z,1021.75
2018-10-12T05:58:31.780Z,1021.73
2018-10-12T05:59:31.969Z,1021.74
2018-10-12T06:00:32.075Z,1021.71
2018-10-12T06:01:31.882Z,1021.72
2018-10-12T06:02:31.969Z,1021.71
2018-10-12T06:03:32.017Z,1021.71
2018-10-12T06:04:31.935Z,1021.74
2018-10-12T06:05:31.945Z,1021.74
2018-10-12T06:06:32.043Z,1021.72
2018-10-12T06:07:32.132Z,1021.75
2018-10-12T06:08:32.304Z,1021.79
2018-10-12T06:09:32.856Z,1021.82
2018-10-12T06:10:31.984Z,1021.77
2018-10-12T06:11:32.961Z,1021.81
2018-10-12T06:12:32.266Z,1021.78
2018-10-12T06:13:32.022Z,1021.77
2018-10-12T06:14:32.091Z,1021.78
2018-10-12T06:15:32.609Z,1021.74
2018-10-12T06:16:32.293Z,1021.74
2018-10-12T06:17:31.917Z,1021.77
2018-10-12T06:18:32.033Z,1021.8
2018-10-12T06:19:32.276Z,1021.8
2018-10-12T06:20:32.096Z,1021.83
2018-10-12T06:21:32.300Z,1021.8
2018-10-12T06:22:32.216Z,1021.8
2018-10-12T06:23:31.830Z,1021.8
2018-10-12T06:24:32.325Z,1021.85
2018-10-12T06:25:32.464Z,1021.86
2018-10-12T06:26:32.255Z,1021.93
2018-10-12T06:27:32.083Z,1021.95
2018-10-12T06:28:32.153Z,1021.92
2018-10-12T06:29:32.314Z,1021.92
2018-10-12T06:30:31.888Z,1021.92
2018-10-12T06:31:32.431Z,1022.01
2018-10-12T06:32:32.151Z,1022.02
2018-10-12T06:33:32.021Z,1022.03
2018-10-12T06:34:32.042Z,1022.08
2018-10-12T06:35:32.152Z,1022.05
2018-10-12T06:36:32.266Z,1022.13
2018-10-12T06:37:31.915Z,1022.13
2018-10-12T06:38:32.122Z,1022.15
2018-10-12T06:39:31.996Z,1022.19
2018-10-12T06:40:32.089Z,1022.23
2018-10-12T06:41:32.632Z,1022.19
2018-10-12T06:42:32.063Z,1022.22
2018-10-12T06:43:31.870Z,1022.27
2018-10-12T06:44:32.076Z,1022.26
2018-10-12T06:45:32.227Z,1022.31
2018-10-12T06:46:32.291Z,1022.32
2018-10-12T06:47:32.060Z,1022.34
2018-10-12T06:48:32.075Z,1022.4
2018-10-12T06:49:31.821Z,1022.46
2018-10-12T06:50:32.082Z,1022.46
2018-10-12T06:51:32.317Z,1022.46
2018-10-12T06:52:31.799Z,1022.5
2018-10-12T06:53:32.122Z,1022.45
2018-10-12T06:54:32.285Z,1022.48
2018-10-12T06:55:31.989Z,1022.48
2018-10-12T06:56:32.005Z,1022.48
2018-10-12T06:57:32.074Z,1022.51
2018-10-12T06:58:31.966Z,1022.52
2018-10-12T06:59:32.024Z,1022.58
2018-10-12T07:00:31.793Z,1022.59
2018-10-12T07:01:31.883Z,1022.67
2018-10-12T07:02:31.910Z,1022.65
2018-10-12T07:03:31.918Z,1022.67
2018-10-12T07:04:32.025Z,1022.67
2018-10-12T07:05:32.033Z,1022.66
2018-10-12T07:06:32.093Z,1022.63
2018-10-12T07:07:32.330Z,1022.64
2018-10-12T07:08:31.935Z,1022.67
2018-10-12T07:09:32.020Z,1022.71
2018-10-12T07:10:31.994Z,1022.74
2018-10-12T07:11:32.006Z,1022.78
2018-10-12T07:12:31.959Z,1022.79
2018-10-12T07:13:31.837Z,1022.84
2018-10-12T07:14:31.817Z,1022.87
2018-10-12T07:15:31.822Z,1022.86
2018-10-12T07:16:31.847Z,1022.89
2018-10-12T07:17:32.052Z,1022.87
2018-10-12T07:18:31.854Z,1022.89
2018-10-12T07:19:32.592Z,1022.87
2018-10-12T07:20:32.219Z,1022.79
2018-10-12T07:21:32.050Z,1022.8
2018-10-12T07:22:32.130Z,1022.82
2018-10-12T07:23:31.975Z,1022.81
2018-10-12T07:24:31.840Z,1022.82
2018-10-12T07:25:32.354Z,1022.8
2018-10-12T07:26:31.860Z,1022.8
2018-10-12T07:27:31.777Z,1022.78
2018-10-12T07:28:31.969Z,1022.75
2018-10-12T07:29:32.004Z,1022.75
2018-10-12T07:30:32.243Z,1022.79
2018-10-12T07:31:32.456Z,1022.77
2018-10-12T07:32:32.094Z,1022.75
2018-10-12T07:33:32.380Z,1022.84
2018-10-12T07:34:32.249Z,1022.85
2018-10-12T07:35:32.278Z,1022.84
2018-10-12T07:36:32.900Z,1022.84
2018-10-12T07:37:32.079Z,1022.85
2018-10-12T07:38:32.041Z,1022.8
2018-10-12T07:39:32.155Z,1022.85
2018-10-12T07:40:31.774Z,1022.89
2018-10-12T07:41:31.856Z,1022.85
2018-10-12T07:42:32.353Z,1022.87
2018-10-12T07:43:32.032Z,1022.88
2018-10-12T07:44:32.363Z,1022.9
2018-10-12T07:45:32.039Z,1022.89
2018-10-12T07:46:32.019Z,1022.9
2018-10-12T07:47:32.424Z,1022.9
2018-10-12T07:48:32.010Z,1022.9
2018-10-12T07:49:31.786Z,1022.93
2018-10-12T07:50:31.875Z,1022.91
2018-10-12T07:51:31.976Z,1022.89
2018-10-12T07:52:31.817Z,1022.9
2018-10-12T07:53:32.045Z,1022.93
2018-10-12T07:54:32.000Z,1022.97
2018-10-12T07:55:31.824Z,1022.96
2018-10-12T07:56:32.153Z,1022.96
2018-10-12T07:57:31.974Z,1022.98
2018-10-12T07:58:32.289Z,1022.94
2018-10-12T07:59:32.239Z,1022.88
2018-10-12T08:00:32.765Z,1022.91
2018-10-12T08:01:32.024Z,1022.91
2018-10-12T08:02:31.960Z,1022.94
2018-10-12T08:03:32.432Z,1022.98
2018-10-12T08:04:31.802Z,1022.99
2018-10-12T08:05:32.079Z,1023.06
2018-10-12T08:06:32.251Z,1023.07
2018-10-12T08:07:31.926Z,1023.07
2018-10-12T08:08:32.157Z,1023.05
2018-10-12T08:09:32.502Z,1023.06
2018-10-12T08:10:31.751Z,1023.03
2018-10-12T08:11:32.077Z,1022.96
2018-10-12T08:12:32.283Z,1022.94
2018-10-12T08:13:32.200Z,1022.94
2018-10-12T08:14:32.330Z,1022.92
2018-10-12T08:15:31.867Z,1022.93
2018-10-12T08:16:31.987Z,1023.02
2018-10-12T08:17:31.961Z,1023.07
2018-10-12T08:18:31.929Z,1023.11
2018-10-12T08:19:31.947Z,1023.09
2018-10-12T08:20:32.540Z,1023.11
2018-10-12T08:21:31.896Z,1023.12
2018-10-12T08:22:32.271Z,1023.1
2018-10-12T08:23:31.977Z,1023.09
2018-10-12T08:24:31.978Z,1023.11
2018-10-12T08:25:31.775Z,1023.1
2018-10-12T08:26:31.993Z,1023.14
2018-10-12T08:27:31.790Z,1023.15
2018-10-12T08:28:31.864Z,1023.15
2018-10-12T08:29:31.971Z,1023.16
2018-10-12T08:30:31.852Z,1023.15
2018-10-12T08:31:32.300Z,1023.15
2018-10-12T08:32:32.014Z,1023.2
2018-10-12T08:33:31.939Z,1023.22
2018-10-12T08:34:31.941Z,1023.2
2018-10-12T08:35:32.097Z,1023.24
2018-10-12T08:36:32.682Z,1023.25
2018-10-12T08:37:31.738Z,1023.28
2018-10-12T08:38:31.818Z,1023.26
2018-10-12T08:39:31.985Z,1023.26
2018-10-12T08:40:31.867Z,1023.24
2018-10-12T08:41:31.971Z,1023.23
2018-10-12T08:42:31.796Z,1023.2
2018-10-12T08:43:32.003Z,1023.22
2018-10-12T08:44:32.009Z,1023.23
2018-10-12T08:45:31.802Z,1023.26
2018-10-12T08:46:31.999Z,1023.25
2018-10-12T08:47:32.429Z,1023.28
2018-10-12T08:48:31.920Z,1023.26
2018-10-12T08:49:32.271Z,1023.24
2018-10-12T08:50:32.179Z,1023.22
2018-10-12T08:51:31.998Z,1023.26
2018-10-12T08:52:31.909Z,1023.3
2018-10-12T08:53:32.224Z,1023.3
2018-10-12T08:54:32.001Z,1023.26
2018-10-12T08:55:32.487Z,1023.27
2018-10-12T08:56:31.827Z,1023.27
2018-10-12T08:57:32.034Z,1023.25
2018-10-12T08:58:32.329Z,1023.28
2018-10-12T08:59:31.990Z,1023.32
2018-10-12T09:00:31.996Z,1023.32
2018-10-12T09:01:31.985Z,1023.3
2018-10-12T09:02:31.828Z,1023.27
2018-10-12T09:03:32.563Z,1023.29
2018-10-12T09:04:32.049Z,1023.25
2018-10-12T09:05:32.060Z,1023.26
2018-10-12T09:06:31.988Z,1023.21
2018-10-12T09:07:32.048Z,1023.2
2018-10-12T09:08:32.105Z,1023.22
2018-10-12T09:09:32.079Z,1023.2
2018-10-12T09:10:31.923Z,1023.26
2018-10-12T09:11:32.890Z,1023.25
2018-10-12T09:12:31.892Z,1023.24
2018-10-12T09:13:31.880Z,1023.23
2018-10-12T09:14:32.059Z,1023.2
2018-10-12T09:15:32.414Z,1023.23
2018-10-12T09:16:32.001Z,1023.22
2018-10-12T09:17:31.913Z,1023.21
2018-10-12T09:18:31.974Z,1023.26
2018-10-12T09:19:31.949Z,1023.24
2018-10-12T09:20:33.171Z,1023.25
2018-10-12T09:21:31.990Z,1023.21
2018-10-12T09:22:31.965Z,1023.23
2018-10-12T09:23:31.766Z,1023.24
2018-10-12T09:24:31.750Z,1023.22
2018-10-12T09:25:32.056Z,1023.19
2018-10-12T09:26:31.888Z,1023.19
2018-10-12T09:27:32.214Z,1023.19
2018-10-12T09:28:33.120Z,1023.11
2018-10-12T09:29:31.919Z,1023.15
2018-10-12T09:30:31.738Z,1023.17
2018-10-12T09:31:32.137Z,1023.17
2018-10-12T09:32:32.117Z,1023.19
2018-10-12T09:33:32.202Z,1023.23
2018-10-12T09:34:32.161Z,1023.25
2018-10-12T09:35:32.041Z,1023.25
2018-10-12T09:36:32.491Z,1023.26
2018-10-12T09:37:32.174Z,1023.24
2018-10-12T09:38:32.182Z,1023.24
2018-10-12T09:39:32.099Z,1023.26
2018-10-12T09:40:31.744Z,1023.29
2018-10-12T09:41:31.896Z,1023.29
2018-10-12T09:42:31.874Z,1023.28
2018-10-12T09:43:32.318Z,1023.3
2018-10-12T09:44:32.311Z,1023.22
2018-10-12T09:45:31.794Z,1023.21
2018-10-12T09:46:32.036Z,1023.18
2018-10-12T09:47:32.162Z,1023.21
2018-10-12T09:48:32.104Z,1023.21
2018-10-12T09:49:32.057Z,1023.21
2018-10-12T09:50:32.647Z,1023.21
2018-10-12T09:51:31.872Z,1023.24
2018-10-12T09:52:31.906Z,1023.2
2018-10-12T09:53:31.896Z,1023.2
2018-10-12T09:54:32.378Z,1023.21
2018-10-12T09:55:31.987Z,1023.24
2018-10-12T09:56:32.023Z,1023.24
2018-10-12T09:57:32.047Z,1023.22
2018-10-12T09:58:31.901Z,1023.2
2018-10-12T09:59:31.718Z,1023.25
2018-10-12T10:00:31.834Z,1023.26
2018-10-12T10:01:32.017Z,1023.23
2018-10-12T10:02:32.343Z,1023.24
2018-10-12T10:03:31.813Z,1023.21
2018-10-12T10:04:31.944Z,1023.24
2018-10-12T10:05:32.413Z,1023.26
2018-10-12T10:06:32.064Z,1023.24
2018-10-12T10:07:32.840Z,1023.26
2018-10-12T10:08:33.567Z,1023.25
2018-10-12T10:09:31.916Z,1023.22
2018-10-12T10:10:32.221Z,1023.23
2018-10-12T10:11:32.197Z,1023.18
2018-10-12T10:12:32.354Z,1023.22
2018-10-12T10:13:32.089Z,1023.2
2018-10-12T10:14:31.847Z,1023.17
2018-10-12T10:15:32.268Z,1023.21
2018-10-12T10:16:32.045Z,1023.21
2018-10-12T10:17:31.825Z,1023.22
2018-10-12T10:18:32.167Z,1023.19
2018-10-12T10:19:32.394Z,1023.2
2018-10-12T10:20:31.767Z,1023.17
2018-10-12T10:21:32.264Z,1023.2
2018-10-12T10:22:32.682Z,1023.2
2018-10-12T10:23:31.870Z,1023.17
2018-10-12T10:24:32.266Z,1023.14
2018-10-12T10:25:32.154Z,1023.13
2018-10-12T10:26:31.981Z,1023.15
2018-10-12T10:27:32.227Z,1023.15
2018-10-12T10:28:32.447Z,1023.16
2018-10-12T10:29:32.120Z,1023.17
2018-10-12T10:30:32.236Z,1023.19
2018-10-12T10:31:32.144Z,1023.14
2018-10-12T10:32:32.178Z,1023.14
2018-10-12T10:33:31.935Z,1023.12
2018-10-12T10:34:31.871Z,1023.1
2018-10-12T10:35:32.074Z,1023.16
2018-10-12T10:36:31.838Z,1023.1
2018-10-12T10:37:31.965Z,1023.07
2018-10-12T10:38:32.209Z,1023.12
2018-10-12T10:39:32.024Z,1023.08
2018-10-12T10:40:31.998Z,1023.07
2018-10-12T10:41:31.992Z,1023.08
2018-10-12T10:42:32.126Z,1023.06
2018-10-12T10:43:32.037Z,1023.04
2018-10-12T10:44:31.932Z,1023
2018-10-12T10:45:32.050Z,1023
2018-10-12T10:46:32.349Z,1022.93
2018-10-12T10:47:31.760Z,1022.98
2018-10-12T10:48:32.042Z,1023
2018-10-12T10:49:31.995Z,1022.98
2018-10-12T10:50:31.740Z,1022.99
2018-10-12T10:51:32.084Z,1023
2018-10-12T10:52:31.890Z,1022.94
2018-10-12T10:53:32.169Z,1022.95
2018-10-12T10:54:31.799Z,1022.99
2018-10-12T10:55:32.431Z,1022.95
2018-10-12T10:56:31.875Z,1022.97
2018-10-12T10:57:31.862Z,1022.95
2018-10-12T10:58:31.911Z,1022.96
2018-10-12T10:59:31.844Z,1022.98
2018-10-12T11:00:31.824Z,1022.93
2018-10-12T11:01:31.825Z,1022.92
2018-10-12T11:02:31.848Z,1022.89
2018-10-12T11:03:32.181Z,1022.93
2018-10-12T11:04:31.983Z,1022.94
2018-10-12T11:05:31.868Z,1022.86
2018-10-12T11:06:31.996Z,1022.89
2018-10-12T11:07:31.793Z,1022.93
2018-10-12T11:08:31.899Z,1022.92
2018-10-12T11:09:31.878Z,1022.91
2018-10-12T11:10:31.902Z,1022.96
2018-10-12T11:11:32.132Z,1022.94
2018-10-12T11:12:32.203Z,1022.97
2018-10-12T11:13:31.892Z,1022.94
2018-10-12T11:14:32.868Z,1022.94
2018-10-12T11:15:32.232Z,1022.92
2018-10-12T11:16:31.953Z,1022.95
2018-10-12T11:17:31.698Z,1022.92
2018-10-12T11:18:32.006Z,1022.88
2018-10-12T11:19:32.115Z,1022.89
2018-10-12T11:20:31.829Z,1022.88
2018-10-12T11:21:31.799Z,1022.85
2018-10-12T11:22:31.935Z,1022.82
2018-10-12T11:23:31.971Z,1022.78
2018-10-12T11:24:32.403Z,1022.82
2018-10-12T11:25:31.877Z,1022.83
2018-10-12T11:26:32.546Z,1022.82
2018-10-12T11:27:31.882Z,1022.8
2018-10-12T11:28:32.058Z,1022.8
2018-10-12T11:29:32.035Z,1022.79
2018-10-12T11:30:31.857Z,1022.79
2018-10-12T11:31:32.284Z,1022.76
2018-10-12T11:32:32.037Z,1022.74
2018-10-12T11:33:32.111Z,1022.78
2018-10-12T11:34:32.906Z,1022.78
2018-10-12T11:35:32.048Z,1022.73
2018-10-12T11:36:31.806Z,1022.79
2018-10-12T11:37:32.200Z,1022.74
2018-10-12T11:38:32.627Z,1022.75
2018-10-12T11:39:32.122Z,1022.78
2018-10-12T11:40:32.129Z,1022.7
2018-10-12T11:41:32.015Z,1022.73
2018-10-12T11:42:32.165Z,1022.67
2018-10-12T11:43:31.814Z,1022.69
2018-10-12T11:44:31.932Z,1022.63
2018-10-12T11:45:32.999Z,1022.68
2018-10-12T11:46:32.267Z,1022.6
2018-10-12T11:47:31.767Z,1022.63
2018-10-12T11:48:32.371Z,1022.56
2018-10-12T11:49:31.670Z,1022.58
2018-10-12T11:50:31.992Z,1022.52
2018-10-12T11:51:31.944Z,1022.54
2018-10-12T11:52:32.025Z,1022.6
2018-10-12T11:53:32.022Z,1022.5
2018-10-12T11:54:31.828Z,1022.52
2018-10-12T11:55:31.684Z,1022.45
2018-10-12T11:56:31.872Z,1022.43
2018-10-12T11:57:32.189Z,1022.48
2018-10-12T11:58:32.039Z,1022.38
2018-10-12T11:59:32.495Z,1022.43
2018-10-12T12:00:31.925Z,1022.43
2018-10-12T12:01:31.838Z,1022.46
2018-10-12T12:02:32.016Z,1022.46
2018-10-12T12:03:31.976Z,1022.41
2018-10-12T12:04:32.255Z,1022.45
2018-10-12T12:05:32.376Z,1022.45
2018-10-12T12:06:31.680Z,1022.43
2018-10-12T12:07:31.734Z,1022.39
2018-10-12T12:08:32.167Z,1022.44